sensor_id;sensor_type;location;lat;lon;timestamp;P1;durP1;ratioP1;P2;durP2;ratioP2
63664;SDS011;49820;33.966;73.390;2023-01-01T00:01:24;3.33;;;2.08;;
63664;SDS011;49820;33.966;73.390;2023-01-01T00:03:55;4.20;;;2.35;;
63664;SDS011;49820;33.966;73.390;2023-01-01T00:06:25;3.50;;;2.40;;
63664;SDS011;49820;33.966;73.390;2023-01-01T00:08:54;3.78;;;2.20;;
63664;SDS011;49820;33.966;73.390;2023-01-01T00:11:41;3.35;;;2.13;;
63664;SDS011;49820;33.966;73.390;2023-01-01T00:14:10;3.88;;;2.20;;
63664;SDS011;49820;33.966;73.390;2023-01-01T00:16:39;3.60;;;2.08;;
63664;SDS011;49820;33.966;73.390;2023-01-01T00:19:08;3.10;;;2.00;;
63664;SDS011;49820;33.966;73.390;2023-01-01T00:21:37;2.95;;;1.67;;
63664;SDS011;49820;33.966;73.390;2023-01-01T00:24:06;3.22;;;1.92;;
63664;SDS011;49820;33.966;73.390;2023-01-01T00:26:36;2.55;;;1.95;;
63664;SDS011;49820;33.966;73.390;2023-01-01T00:29:05;2.90;;;1.90;;
63664;SDS011;49820;33.966;73.390;2023-01-01T00:31:34;3.47;;;2.10;;
63664;SDS011;49820;33.966;73.390;2023-01-01T00:34:03;3.55;;;1.90;;
63664;SDS011;49820;33.966;73.390;2023-01-01T00:36:32;2.80;;;1.80;;
63664;SDS011;49820;33.966;73.390;2023-01-01T00:39:02;2.83;;;1.80;;
63664;SDS011;49820;33.966;73.390;2023-01-01T00:41:31;3.13;;;1.73;;
63664;SDS011;49820;33.966;73.390;2023-01-01T00:44:00;2.88;;;1.90;;
63664;SDS011;49820;33.966;73.390;2023-01-01T00:46:29;4.35;;;2.10;;
63664;SDS011;49820;33.966;73.390;2023-01-01T00:48:57;3.08;;;2.10;;
63664;SDS011;49820;33.966;73.390;2023-01-01T00:51:26;3.63;;;1.98;;
63664;SDS011;49820;33.966;73.390;2023-01-01T00:54:02;3.55;;;1.90;;
63664;SDS011;49820;33.966;73.390;2023-01-01T00:56:32;3.90;;;2.08;;
63664;SDS011;49820;33.966;73.390;2023-01-01T00:59:02;2.63;;;1.80;;
63664;SDS011;49820;33.966;73.390;2023-01-01T01:01:31;3.20;;;1.90;;
63664;SDS011;49820;33.966;73.390;2023-01-01T01:04:02;3.25;;;2.03;;
63664;SDS011;49820;33.966;73.390;2023-01-01T01:06:31;3.70;;;2.33;;
63664;SDS011;49820;33.966;73.390;2023-01-01T01:09:00;3.53;;;2.05;;
63664;SDS011;49820;33.966;73.390;2023-01-01T01:11:30;2.60;;;1.98;;
63664;SDS011;49820;33.966;73.390;2023-01-01T01:13:59;3.20;;;2.20;;
63664;SDS011;49820;33.966;73.390;2023-01-01T01:16:30;3.28;;;1.75;;
63664;SDS011;49820;33.966;73.390;2023-01-01T01:19:00;3.50;;;2.25;;
63664;SDS011;49820;33.966;73.390;2023-01-01T01:21:32;3.70;;;1.98;;
63664;SDS011;49820;33.966;73.390;2023-01-01T01:24:02;4.03;;;2.05;;
63664;SDS011;49820;33.966;73.390;2023-01-01T01:26:31;3.28;;;1.95;;
63664;SDS011;49820;33.966;73.390;2023-01-01T01:29:01;3.22;;;2.20;;
63664;SDS011;49820;33.966;73.390;2023-01-01T01:31:31;3.17;;;2.03;;
63664;SDS011;49820;33.966;73.390;2023-01-01T01:34:02;3.55;;;2.15;;
63664;SDS011;49820;33.966;73.390;2023-01-01T01:36:32;3.40;;;2.20;;
63664;SDS011;49820;33.966;73.390;2023-01-01T01:39:01;3.80;;;2.20;;
63664;SDS011;49820;33.966;73.390;2023-01-01T01:41:29;3.70;;;1.98;;
63664;SDS011;49820;33.966;73.390;2023-01-01T01:44:00;3.23;;;1.80;;
63664;SDS011;49820;33.966;73.390;2023-01-01T01:46:33;3.08;;;1.77;;
63664;SDS011;49820;33.966;73.390;2023-01-01T01:49:15;3.05;;;1.90;;
63664;SDS011;49820;33.966;73.390;2023-01-01T01:51:49;3.05;;;1.80;;
63664;SDS011;49820;33.966;73.390;2023-01-01T01:54:19;3.70;;;2.00;;
63664;SDS011;49820;33.966;73.390;2023-01-01T01:57:02;2.88;;;2.15;;
63664;SDS011;49820;33.966;73.390;2023-01-01T01:59:35;3.40;;;2.20;;
63664;SDS011;49820;33.966;73.390;2023-01-01T02:02:11;3.50;;;2.28;;
63664;SDS011;49820;33.966;73.390;2023-01-01T02:04:46;3.20;;;1.92;;
63664;SDS011;49820;33.966;73.390;2023-01-01T02:07:15;3.17;;;1.85;;
63664;SDS011;49820;33.966;73.390;2023-01-01T02:09:46;3.45;;;2.17;;
63664;SDS011;49820;33.966;73.390;2023-01-01T02:12:15;2.85;;;1.73;;
63664;SDS011;49820;33.966;73.390;2023-01-01T02:14:43;2.63;;;2.00;;
63664;SDS011;49820;33.966;73.390;2023-01-01T02:17:57;3.75;;;2.20;;
63664;SDS011;49820;33.966;73.390;2023-01-01T02:20:37;3.00;;;2.00;;
63664;SDS011;49820;33.966;73.390;2023-01-01T02:23:27;2.70;;;1.80;;
63664;SDS011;49820;33.966;73.390;2023-01-01T02:29:20;3.47;;;2.00;;
63664;SDS011;49820;33.966;73.390;2023-01-01T02:32:20;3.60;;;2.40;;
63664;SDS011;49820;33.966;73.390;2023-01-01T02:35:00;3.05;;;2.05;;
63664;SDS011;49820;33.966;73.390;2023-01-01T02:41:01;3.35;;;1.90;;
63664;SDS011;49820;33.966;73.390;2023-01-01T02:43:38;2.72;;;1.80;;
63664;SDS011;49820;33.966;73.390;2023-01-01T02:46:07;3.67;;;2.00;;
63664;SDS011;49820;33.966;73.390;2023-01-01T02:51:24;3.00;;;1.90;;
63664;SDS011;49820;33.966;73.390;2023-01-01T02:54:10;3.83;;;2.00;;
63664;SDS011;49820;33.966;73.390;2023-01-01T02:59:46;3.47;;;2.08;;
63664;SDS011;49820;33.966;73.390;2023-01-01T03:05:59;3.45;;;2.13;;
63664;SDS011;49820;33.966;73.390;2023-01-01T03:08:59;3.57;;;1.93;;
63664;SDS011;49820;33.966;73.390;2023-01-01T03:17:20;3.40;;;2.25;;
63664;SDS011;49820;33.966;73.390;2023-01-01T03:20:05;3.38;;;2.00;;
63664;SDS011;49820;33.966;73.390;2023-01-01T03:22:39;3.55;;;2.45;;
63664;SDS011;49820;33.966;73.390;2023-01-01T03:25:13;3.33;;;2.20;;
63664;SDS011;49820;33.966;73.390;2023-01-01T03:27:49;4.18;;;2.53;;
63664;SDS011;49820;33.966;73.390;2023-01-01T03:30:27;3.85;;;2.08;;
63664;SDS011;49820;33.966;73.390;2023-01-01T03:32:59;3.83;;;2.42;;
63664;SDS011;49820;33.966;73.390;2023-01-01T03:35:44;3.95;;;2.50;;
63664;SDS011;49820;33.966;73.390;2023-01-01T03:38:41;4.75;;;2.42;;
63664;SDS011;49820;33.966;73.390;2023-01-01T03:41:46;3.92;;;2.75;;
63664;SDS011;49820;33.966;73.390;2023-01-01T03:44:37;3.50;;;2.35;;
63664;SDS011;49820;33.966;73.390;2023-01-01T03:47:13;3.75;;;2.30;;
63664;SDS011;49820;33.966;73.390;2023-01-01T03:49:42;4.27;;;2.60;;
63664;SDS011;49820;33.966;73.390;2023-01-01T04:00:55;4.30;;;2.50;;
63664;SDS011;49820;33.966;73.390;2023-01-01T04:03:31;4.03;;;2.40;;
63664;SDS011;49820;33.966;73.390;2023-01-01T04:06:03;3.67;;;2.53;;
63664;SDS011;49820;33.966;73.390;2023-01-01T04:08:33;3.63;;;2.22;;
63664;SDS011;49820;33.966;73.390;2023-01-01T04:11:05;5.10;;;2.85;;
63664;SDS011;49820;33.966;73.390;2023-01-01T04:14:00;3.90;;;2.50;;
63664;SDS011;49820;33.966;73.390;2023-01-01T04:16:29;3.95;;;2.38;;
63664;SDS011;49820;33.966;73.390;2023-01-01T04:18:58;4.60;;;2.50;;
63664;SDS011;49820;33.966;73.390;2023-01-01T04:21:27;3.33;;;2.20;;
63664;SDS011;49820;33.966;73.390;2023-01-01T04:23:56;5.13;;;2.50;;
63664;SDS011;49820;33.966;73.390;2023-01-01T04:26:26;4.05;;;2.67;;
63664;SDS011;49820;33.966;73.390;2023-01-01T04:28:55;3.20;;;2.50;;
63664;SDS011;49820;33.966;73.390;2023-01-01T04:31:24;3.60;;;2.20;;
63664;SDS011;49820;33.966;73.390;2023-01-01T04:33:53;3.63;;;2.13;;
63664;SDS011;49820;33.966;73.390;2023-01-01T04:36:22;4.40;;;2.42;;
63664;SDS011;49820;33.966;73.390;2023-01-01T04:59:29;4.07;;;3.10;;
63664;SDS011;49820;33.966;73.390;2023-01-01T05:01:59;5.53;;;3.17;;
63664;SDS011;49820;33.966;73.390;2023-01-01T05:04:28;4.55;;;3.00;;
63664;SDS011;49820;33.966;73.390;2023-01-01T05:06:58;4.95;;;3.28;;
63664;SDS011;49820;33.966;73.390;2023-01-01T05:09:26;3.63;;;2.53;;
63664;SDS011;49820;33.966;73.390;2023-01-01T05:11:55;4.43;;;3.10;;
63664;SDS011;49820;33.966;73.390;2023-01-01T05:14:25;4.13;;;2.70;;
63664;SDS011;49820;33.966;73.390;2023-01-01T05:16:54;3.47;;;2.22;;
63664;SDS011;49820;33.966;73.390;2023-01-01T05:19:23;4.40;;;2.97;;
63664;SDS011;49820;33.966;73.390;2023-01-01T05:21:52;4.53;;;2.80;;
63664;SDS011;49820;33.966;73.390;2023-01-01T05:24:21;3.78;;;2.50;;
63664;SDS011;49820;33.966;73.390;2023-01-01T05:26:50;4.75;;;3.20;;
63664;SDS011;49820;33.966;73.390;2023-01-01T05:29:19;5.53;;;3.40;;
63664;SDS011;49820;33.966;73.390;2023-01-01T05:31:51;4.23;;;3.20;;
63664;SDS011;49820;33.966;73.390;2023-01-01T05:34:20;5.13;;;3.50;;
63664;SDS011;49820;33.966;73.390;2023-01-01T05:36:49;4.60;;;3.00;;
63664;SDS011;49820;33.966;73.390;2023-01-01T05:39:26;6.18;;;3.53;;
63664;SDS011;49820;33.966;73.390;2023-01-01T05:41:56;4.60;;;3.30;;
63664;SDS011;49820;33.966;73.390;2023-01-01T05:44:25;5.53;;;4.00;;
63664;SDS011;49820;33.966;73.390;2023-01-01T05:46:53;5.57;;;3.85;;
63664;SDS011;49820;33.966;73.390;2023-01-01T05:49:22;6.40;;;3.67;;
63664;SDS011;49820;33.966;73.390;2023-01-01T05:51:51;4.00;;;3.00;;
63664;SDS011;49820;33.966;73.390;2023-01-01T05:54:20;4.45;;;3.20;;
63664;SDS011;49820;33.966;73.390;2023-01-01T05:56:48;4.97;;;3.53;;
63664;SDS011;49820;33.966;73.390;2023-01-01T05:59:18;6.97;;;4.22;;
63664;SDS011;49820;33.966;73.390;2023-01-01T06:01:47;6.32;;;4.20;;
63664;SDS011;49820;33.966;73.390;2023-01-01T06:04:16;5.38;;;4.00;;
63664;SDS011;49820;33.966;73.390;2023-01-01T06:06:44;7.68;;;4.82;;
63664;SDS011;49820;33.966;73.390;2023-01-01T06:09:13;7.75;;;4.57;;
63664;SDS011;49820;33.966;73.390;2023-01-01T06:11:42;6.78;;;4.38;;
63664;SDS011;49820;33.966;73.390;2023-01-01T06:14:11;7.32;;;4.57;;
63664;SDS011;49820;33.966;73.390;2023-01-01T06:16:40;6.50;;;4.60;;
63664;SDS011;49820;33.966;73.390;2023-01-01T06:19:09;6.50;;;4.57;;
63664;SDS011;49820;33.966;73.390;2023-01-01T06:21:38;5.70;;;4.13;;
63664;SDS011;49820;33.966;73.390;2023-01-01T06:24:07;7.10;;;4.68;;
63664;SDS011;49820;33.966;73.390;2023-01-01T06:26:36;7.22;;;4.65;;
63664;SDS011;49820;33.966;73.390;2023-01-01T06:29:06;5.57;;;4.22;;
63664;SDS011;49820;33.966;73.390;2023-01-01T06:31:35;6.05;;;4.28;;
63664;SDS011;49820;33.966;73.390;2023-01-01T06:34:07;5.63;;;3.95;;
63664;SDS011;49820;33.966;73.390;2023-01-01T06:36:36;6.05;;;4.07;;
63664;SDS011;49820;33.966;73.390;2023-01-01T06:39:05;5.75;;;3.92;;
63664;SDS011;49820;33.966;73.390;2023-01-01T06:41:33;6.68;;;4.68;;
63664;SDS011;49820;33.966;73.390;2023-01-01T06:44:03;5.10;;;3.60;;
63664;SDS011;49820;33.966;73.390;2023-01-01T06:46:33;5.45;;;3.90;;
63664;SDS011;49820;33.966;73.390;2023-01-01T06:49:04;4.65;;;3.50;;
63664;SDS011;49820;33.966;73.390;2023-01-01T06:51:38;5.55;;;4.47;;
63664;SDS011;49820;33.966;73.390;2023-01-01T06:54:09;5.65;;;4.13;;
63664;SDS011;49820;33.966;73.390;2023-01-01T06:56:38;5.45;;;4.05;;
63664;SDS011;49820;33.966;73.390;2023-01-01T06:59:07;4.30;;;3.37;;
63664;SDS011;49820;33.966;73.390;2023-01-01T07:01:37;4.53;;;3.47;;
63664;SDS011;49820;33.966;73.390;2023-01-01T07:04:12;4.53;;;3.43;;
63664;SDS011;49820;33.966;73.390;2023-01-01T07:06:42;5.00;;;3.45;;
63664;SDS011;49820;33.966;73.390;2023-01-01T07:09:11;4.95;;;3.55;;
63664;SDS011;49820;33.966;73.390;2023-01-01T07:11:40;5.40;;;3.80;;
63664;SDS011;49820;33.966;73.390;2023-01-01T07:14:12;5.03;;;4.03;;
63664;SDS011;49820;33.966;73.390;2023-01-01T07:16:41;6.23;;;4.30;;
63664;SDS011;49820;33.966;73.390;2023-01-01T07:19:10;5.10;;;4.07;;
63664;SDS011;49820;33.966;73.390;2023-01-01T07:21:41;4.97;;;3.83;;
63664;SDS011;49820;33.966;73.390;2023-01-01T07:24:13;6.18;;;4.15;;
63664;SDS011;49820;33.966;73.390;2023-01-01T07:26:43;5.18;;;4.32;;
63664;SDS011;49820;33.966;73.390;2023-01-01T07:29:12;4.80;;;4.30;;
63664;SDS011;49820;33.966;73.390;2023-01-01T07:31:43;5.30;;;3.97;;
63664;SDS011;49820;33.966;73.390;2023-01-01T07:34:13;5.55;;;4.00;;
63664;SDS011;49820;33.966;73.390;2023-01-01T07:36:45;5.43;;;4.00;;
63664;SDS011;49820;33.966;73.390;2023-01-01T07:39:13;6.28;;;4.35;;
63664;SDS011;49820;33.966;73.390;2023-01-01T07:41:43;7.10;;;4.18;;
63664;SDS011;49820;33.966;73.390;2023-01-01T07:44:12;5.15;;;4.20;;
63664;SDS011;49820;33.966;73.390;2023-01-01T07:46:42;4.82;;;3.92;;
63664;SDS011;49820;33.966;73.390;2023-01-01T07:49:10;5.97;;;4.57;;
63664;SDS011;49820;33.966;73.390;2023-01-01T07:51:39;5.10;;;4.28;;
63664;SDS011;49820;33.966;73.390;2023-01-01T07:54:08;5.55;;;4.32;;
63664;SDS011;49820;33.966;73.390;2023-01-01T07:56:37;5.68;;;4.10;;
63664;SDS011;49820;33.966;73.390;2023-01-01T07:59:06;7.47;;;5.37;;
63664;SDS011;49820;33.966;73.390;2023-01-01T08:01:35;6.65;;;4.93;;
63664;SDS011;49820;33.966;73.390;2023-01-01T08:04:04;6.10;;;4.88;;
63664;SDS011;49820;33.966;73.390;2023-01-01T08:06:34;5.65;;;4.55;;
63664;SDS011;49820;33.966;73.390;2023-01-01T08:09:05;6.67;;;4.93;;
63664;SDS011;49820;33.966;73.390;2023-01-01T08:11:34;5.90;;;4.60;;
63664;SDS011;49820;33.966;73.390;2023-01-01T08:14:03;7.15;;;5.20;;
63664;SDS011;49820;33.966;73.390;2023-01-01T08:16:31;7.15;;;5.20;;
63664;SDS011;49820;33.966;73.390;2023-01-01T08:19:01;6.45;;;5.15;;
63664;SDS011;49820;33.966;73.390;2023-01-01T08:21:30;11.93;;;7.38;;
63664;SDS011;49820;33.966;73.390;2023-01-01T08:23:59;10.00;;;6.35;;
63664;SDS011;49820;33.966;73.390;2023-01-01T08:26:29;6.82;;;4.90;;
63664;SDS011;49820;33.966;73.390;2023-01-01T08:29:04;6.38;;;5.05;;
63664;SDS011;49820;33.966;73.390;2023-01-01T08:31:34;8.38;;;5.93;;
63664;SDS011;49820;33.966;73.390;2023-01-01T08:34:03;11.75;;;7.00;;
63664;SDS011;49820;33.966;73.390;2023-01-01T08:36:32;9.60;;;6.03;;
63664;SDS011;49820;33.966;73.390;2023-01-01T08:39:02;7.47;;;5.40;;
63664;SDS011;49820;33.966;73.390;2023-01-01T08:41:31;8.65;;;5.55;;
63664;SDS011;49820;33.966;73.390;2023-01-01T08:44:00;6.53;;;5.22;;
63664;SDS011;49820;33.966;73.390;2023-01-01T08:46:29;9.05;;;5.95;;
63664;SDS011;49820;33.966;73.390;2023-01-01T08:48:58;6.43;;;5.22;;
63664;SDS011;49820;33.966;73.390;2023-01-01T08:51:28;8.00;;;5.65;;
63664;SDS011;49820;33.966;73.390;2023-01-01T08:53:57;7.60;;;5.70;;
63664;SDS011;49820;33.966;73.390;2023-01-01T08:56:26;6.68;;;5.40;;
63664;SDS011;49820;33.966;73.390;2023-01-01T08:58:55;7.40;;;5.55;;
63664;SDS011;49820;33.966;73.390;2023-01-01T09:01:32;7.43;;;5.60;;
63664;SDS011;49820;33.966;73.390;2023-01-01T09:04:01;7.43;;;5.95;;
63664;SDS011;49820;33.966;73.390;2023-01-01T09:06:29;7.50;;;5.80;;
63664;SDS011;49820;33.966;73.390;2023-01-01T09:08:58;8.60;;;6.65;;
63664;SDS011;49820;33.966;73.390;2023-01-01T09:11:27;7.72;;;5.75;;
63664;SDS011;49820;33.966;73.390;2023-01-01T09:13:56;8.80;;;5.60;;
63664;SDS011;49820;33.966;73.390;2023-01-01T09:16:25;8.35;;;5.70;;
63664;SDS011;49820;33.966;73.390;2023-01-01T09:18:54;8.43;;;6.50;;
63664;SDS011;49820;33.966;73.390;2023-01-01T09:21:23;7.32;;;6.05;;
63664;SDS011;49820;33.966;73.390;2023-01-01T09:23:52;7.68;;;6.05;;
63664;SDS011;49820;33.966;73.390;2023-01-01T09:26:21;8.48;;;6.50;;
63664;SDS011;49820;33.966;73.390;2023-01-01T09:28:50;7.38;;;6.00;;
63664;SDS011;49820;33.966;73.390;2023-01-01T09:31:19;7.43;;;5.72;;
63664;SDS011;49820;33.966;73.390;2023-01-01T09:33:47;7.18;;;6.13;;
63664;SDS011;49820;33.966;73.390;2023-01-01T09:38:49;7.68;;;5.97;;
63664;SDS011;49820;33.966;73.390;2023-01-01T09:41:23;12.63;;;6.28;;
63664;SDS011;49820;33.966;73.390;2023-01-01T09:44:00;9.45;;;6.13;;
63664;SDS011;49820;33.966;73.390;2023-01-01T09:46:41;9.85;;;6.40;;
63664;SDS011;49820;33.966;73.390;2023-01-01T09:49:15;7.63;;;6.05;;
63664;SDS011;49820;33.966;73.390;2023-01-01T09:51:57;7.20;;;5.90;;
63664;SDS011;49820;33.966;73.390;2023-01-01T09:54:33;6.88;;;5.70;;
63664;SDS011;49820;33.966;73.390;2023-01-01T09:57:07;9.02;;;6.25;;
63664;SDS011;49820;33.966;73.390;2023-01-01T09:59:46;8.63;;;6.18;;
63664;SDS011;49820;33.966;73.390;2023-01-01T10:08:09;7.93;;;6.20;;
63664;SDS011;49820;33.966;73.390;2023-01-01T10:10:53;8.27;;;6.25;;
63664;SDS011;49820;33.966;73.390;2023-01-01T10:18:54;8.43;;;6.73;;
63664;SDS011;49820;33.966;73.390;2023-01-01T10:21:26;8.65;;;6.57;;
63664;SDS011;49820;33.966;73.390;2023-01-01T10:27:03;8.25;;;6.30;;
63664;SDS011;49820;33.966;73.390;2023-01-01T10:29:38;8.57;;;6.60;;
63664;SDS011;49820;33.966;73.390;2023-01-01T10:35:12;11.30;;;7.55;;
63664;SDS011;49820;33.966;73.390;2023-01-01T10:37:43;9.50;;;6.85;;
63664;SDS011;49820;33.966;73.390;2023-01-01T10:40:18;10.15;;;7.03;;
63664;SDS011;49820;33.966;73.390;2023-01-01T10:42:51;13.85;;;7.68;;
63664;SDS011;49820;33.966;73.390;2023-01-01T10:53:23;11.10;;;8.07;;
63664;SDS011;49820;33.966;73.390;2023-01-01T10:56:03;9.98;;;7.53;;
63664;SDS011;49820;33.966;73.390;2023-01-01T10:58:34;10.73;;;7.38;;
63664;SDS011;49820;33.966;73.390;2023-01-01T11:01:31;11.88;;;7.68;;
63664;SDS011;49820;33.966;73.390;2023-01-01T11:06:41;12.05;;;8.18;;
63664;SDS011;49820;33.966;73.390;2023-01-01T11:09:30;18.45;;;13.23;;
63664;SDS011;49820;33.966;73.390;2023-01-01T11:12:05;14.13;;;9.30;;
63664;SDS011;49820;33.966;73.390;2023-01-01T11:15:04;17.95;;;12.18;;
63664;SDS011;49820;33.966;73.390;2023-01-01T11:17:34;15.17;;;10.77;;
63664;SDS011;49820;33.966;73.390;2023-01-01T11:20:04;16.15;;;10.25;;
63664;SDS011;49820;33.966;73.390;2023-01-01T11:22:42;14.88;;;10.18;;
63664;SDS011;49820;33.966;73.390;2023-01-01T11:25:29;14.00;;;9.25;;
63664;SDS011;49820;33.966;73.390;2023-01-01T11:33:35;17.35;;;10.45;;
63664;SDS011;49820;33.966;73.390;2023-01-01T11:36:10;14.88;;;10.02;;
63664;SDS011;49820;33.966;73.390;2023-01-01T11:38:40;19.50;;;11.05;;
63664;SDS011;49820;33.966;73.390;2023-01-01T11:41:09;16.88;;;11.90;;
63664;SDS011;49820;33.966;73.390;2023-01-01T11:43:39;17.42;;;11.20;;
63664;SDS011;49820;33.966;73.390;2023-01-01T11:46:15;20.63;;;11.35;;
63664;SDS011;49820;33.966;73.390;2023-01-01T11:48:50;17.50;;;10.83;;
63664;SDS011;49820;33.966;73.390;2023-01-01T11:51:28;18.58;;;11.05;;
63664;SDS011;49820;33.966;73.390;2023-01-01T11:54:10;19.57;;;11.33;;
63664;SDS011;49820;33.966;73.390;2023-01-01T11:57:07;21.50;;;10.95;;
63664;SDS011;49820;33.966;73.390;2023-01-01T11:59:48;20.70;;;11.10;;
63664;SDS011;49820;33.966;73.390;2023-01-01T12:08:38;22.10;;;13.25;;
63664;SDS011;49820;33.966;73.390;2023-01-01T12:13:54;21.87;;;12.53;;
63664;SDS011;49820;33.966;73.390;2023-01-01T12:19:10;20.50;;;12.65;;
63664;SDS011;49820;33.966;73.390;2023-01-01T12:21:54;20.27;;;12.75;;
63664;SDS011;49820;33.966;73.390;2023-01-01T12:24:31;20.70;;;13.00;;
63664;SDS011;49820;33.966;73.390;2023-01-01T12:30:00;29.95;;;15.48;;
63664;SDS011;49820;33.966;73.390;2023-01-01T12:32:38;31.48;;;17.98;;
63664;SDS011;49820;33.966;73.390;2023-01-01T12:47:09;47.77;;;30.07;;
63664;SDS011;49820;33.966;73.390;2023-01-01T12:49:55;36.60;;;23.10;;
63664;SDS011;49820;33.966;73.390;2023-01-01T12:55:54;17.40;;;11.45;;
63664;SDS011;49820;33.966;73.390;2023-01-01T12:59:05;20.08;;;12.25;;
63664;SDS011;49820;33.966;73.390;2023-01-01T13:01:40;18.23;;;12.48;;
63664;SDS011;49820;33.966;73.390;2023-01-01T13:04:13;20.02;;;11.65;;
63664;SDS011;49820;33.966;73.390;2023-01-01T13:06:51;18.60;;;11.32;;
63664;SDS011;49820;33.966;73.390;2023-01-01T13:09:34;17.33;;;10.77;;
63664;SDS011;49820;33.966;73.390;2023-01-01T13:14:42;17.83;;;10.55;;
63664;SDS011;49820;33.966;73.390;2023-01-01T13:22:35;16.85;;;10.48;;
63664;SDS011;49820;33.966;73.390;2023-01-01T13:43:53;18.83;;;10.90;;
63664;SDS011;49820;33.966;73.390;2023-01-01T13:47:00;17.27;;;10.57;;
63664;SDS011;49820;33.966;73.390;2023-01-01T13:55:53;20.15;;;11.80;;
63664;SDS011;49820;33.966;73.390;2023-01-01T14:01:30;16.52;;;10.93;;
63664;SDS011;49820;33.966;73.390;2023-01-01T14:04:05;19.33;;;11.40;;
63664;SDS011;49820;33.966;73.390;2023-01-01T14:06:46;17.75;;;10.75;;
63664;SDS011;49820;33.966;73.390;2023-01-01T14:09:20;18.20;;;11.20;;
63664;SDS011;49820;33.966;73.390;2023-01-01T14:11:49;18.55;;;10.98;;
63664;SDS011;49820;33.966;73.390;2023-01-01T14:17:01;20.65;;;11.85;;
63664;SDS011;49820;33.966;73.390;2023-01-01T14:19:34;18.52;;;10.40;;
63664;SDS011;49820;33.966;73.390;2023-01-01T14:22:10;17.67;;;11.10;;
63664;SDS011;49820;33.966;73.390;2023-01-01T14:24:45;17.90;;;10.63;;
63664;SDS011;49820;33.966;73.390;2023-01-01T14:27:16;15.67;;;10.33;;
63664;SDS011;49820;33.966;73.390;2023-01-01T14:29:48;17.85;;;10.70;;
63664;SDS011;49820;33.966;73.390;2023-01-01T14:32:23;18.13;;;11.18;;
63664;SDS011;49820;33.966;73.390;2023-01-01T14:35:00;19.30;;;11.80;;
63664;SDS011;49820;33.966;73.390;2023-01-01T14:37:30;19.63;;;11.40;;
63664;SDS011;49820;33.966;73.390;2023-01-01T14:40:06;19.42;;;12.07;;
63664;SDS011;49820;33.966;73.390;2023-01-01T14:42:42;20.08;;;12.23;;
63664;SDS011;49820;33.966;73.390;2023-01-01T14:45:16;19.23;;;11.90;;
63664;SDS011;49820;33.966;73.390;2023-01-01T14:47:49;19.83;;;12.00;;
63664;SDS011;49820;33.966;73.390;2023-01-01T14:50:23;18.53;;;11.27;;
63664;SDS011;49820;33.966;73.390;2023-01-01T14:53:06;19.92;;;12.05;;
63664;SDS011;49820;33.966;73.390;2023-01-01T14:55:40;20.13;;;11.67;;
63664;SDS011;49820;33.966;73.390;2023-01-01T14:58:21;19.52;;;11.82;;
63664;SDS011;49820;33.966;73.390;2023-01-01T15:00:52;17.48;;;11.45;;
63664;SDS011;49820;33.966;73.390;2023-01-01T15:03:22;20.30;;;11.93;;
63664;SDS011;49820;33.966;73.390;2023-01-01T15:05:58;20.70;;;12.07;;
63664;SDS011;49820;33.966;73.390;2023-01-01T15:08:31;18.85;;;12.23;;
63664;SDS011;49820;33.966;73.390;2023-01-01T15:11:01;20.60;;;12.65;;
63664;SDS011;49820;33.966;73.390;2023-01-01T15:13:31;21.10;;;13.38;;
63664;SDS011;49820;33.966;73.390;2023-01-01T15:16:16;21.38;;;13.48;;
63664;SDS011;49820;33.966;73.390;2023-01-01T15:18:48;21.85;;;12.40;;
63664;SDS011;49820;33.966;73.390;2023-01-01T15:26:43;22.40;;;12.23;;
63664;SDS011;49820;33.966;73.390;2023-01-01T15:29:15;21.00;;;12.52;;
63664;SDS011;49820;33.966;73.390;2023-01-01T15:31:53;20.38;;;12.02;;
63664;SDS011;49820;33.966;73.390;2023-01-01T15:34:49;20.50;;;12.98;;
63664;SDS011;49820;33.966;73.390;2023-01-01T15:39:59;19.83;;;12.60;;
63664;SDS011;49820;33.966;73.390;2023-01-01T15:42:35;21.43;;;13.27;;
63664;SDS011;49820;33.966;73.390;2023-01-01T15:47:50;22.73;;;12.38;;
63664;SDS011;49820;33.966;73.390;2023-01-01T15:50:23;21.73;;;12.85;;
63664;SDS011;49820;33.966;73.390;2023-01-01T15:53:01;20.50;;;12.35;;
63664;SDS011;49820;33.966;73.390;2023-01-01T15:55:58;19.85;;;12.25;;
63664;SDS011;49820;33.966;73.390;2023-01-01T15:58:33;20.52;;;12.15;;
63664;SDS011;49820;33.966;73.390;2023-01-01T16:01:07;18.02;;;11.98;;
63664;SDS011;49820;33.966;73.390;2023-01-01T16:03:40;19.13;;;11.60;;
63664;SDS011;49820;33.966;73.390;2023-01-01T16:06:19;20.00;;;11.75;;
63664;SDS011;49820;33.966;73.390;2023-01-01T16:08:49;19.73;;;12.50;;
63664;SDS011;49820;33.966;73.390;2023-01-01T16:11:18;19.13;;;11.73;;
63664;SDS011;49820;33.966;73.390;2023-01-01T16:13:46;21.40;;;11.80;;
63664;SDS011;49820;33.966;73.390;2023-01-01T16:16:23;20.52;;;12.52;;
63664;SDS011;49820;33.966;73.390;2023-01-01T16:18:54;18.92;;;11.00;;
63664;SDS011;49820;33.966;73.390;2023-01-01T16:21:28;15.80;;;10.63;;
63664;SDS011;49820;33.966;73.390;2023-01-01T16:24:00;16.17;;;10.75;;
63664;SDS011;49820;33.966;73.390;2023-01-01T16:26:29;18.20;;;11.27;;
63664;SDS011;49820;33.966;73.390;2023-01-01T16:28:57;17.92;;;11.98;;
63664;SDS011;49820;33.966;73.390;2023-01-01T16:31:27;18.27;;;10.90;;
63664;SDS011;49820;33.966;73.390;2023-01-01T16:33:56;20.58;;;11.02;;
63664;SDS011;49820;33.966;73.390;2023-01-01T16:36:27;20.27;;;11.02;;
63664;SDS011;49820;33.966;73.390;2023-01-01T16:38:56;17.80;;;11.60;;
63664;SDS011;49820;33.966;73.390;2023-01-01T16:41:26;19.05;;;10.98;;
63664;SDS011;49820;33.966;73.390;2023-01-01T16:43:57;19.98;;;11.40;;
63664;SDS011;49820;33.966;73.390;2023-01-01T16:46:25;18.23;;;11.20;;
63664;SDS011;49820;33.966;73.390;2023-01-01T16:48:55;20.45;;;11.63;;
63664;SDS011;49820;33.966;73.390;2023-01-01T16:51:28;20.05;;;10.82;;
63664;SDS011;49820;33.966;73.390;2023-01-01T16:53:58;18.23;;;11.55;;
63664;SDS011;49820;33.966;73.390;2023-01-01T16:56:30;18.17;;;10.55;;
63664;SDS011;49820;33.966;73.390;2023-01-01T16:58:59;18.10;;;11.30;;
63664;SDS011;49820;33.966;73.390;2023-01-01T17:01:30;18.83;;;11.82;;
63664;SDS011;49820;33.966;73.390;2023-01-01T17:03:59;147.03;;;114.87;;
63664;SDS011;49820;33.966;73.390;2023-01-01T17:06:28;120.22;;;84.50;;
63664;SDS011;49820;33.966;73.390;2023-01-01T17:09:00;36.17;;;22.48;;
63664;SDS011;49820;33.966;73.390;2023-01-01T17:11:29;20.17;;;11.57;;
63664;SDS011;49820;33.966;73.390;2023-01-01T17:13:58;19.70;;;11.50;;
63664;SDS011;49820;33.966;73.390;2023-01-01T17:16:29;22.10;;;10.70;;
63664;SDS011;49820;33.966;73.390;2023-01-01T17:19:05;17.93;;;11.33;;
63664;SDS011;49820;33.966;73.390;2023-01-01T17:21:44;18.95;;;11.75;;
63664;SDS011;49820;33.966;73.390;2023-01-01T17:24:14;18.10;;;11.45;;
63664;SDS011;49820;33.966;73.390;2023-01-01T17:26:46;20.08;;;11.45;;
63664;SDS011;49820;33.966;73.390;2023-01-01T17:29:20;19.75;;;11.38;;
63664;SDS011;49820;33.966;73.390;2023-01-01T17:31:50;18.33;;;11.13;;
63664;SDS011;49820;33.966;73.390;2023-01-01T17:34:19;16.77;;;10.75;;
63664;SDS011;49820;33.966;73.390;2023-01-01T17:36:48;18.20;;;10.77;;
63664;SDS011;49820;33.966;73.390;2023-01-01T17:39:17;17.05;;;10.48;;
63664;SDS011;49820;33.966;73.390;2023-01-01T17:41:45;21.00;;;11.20;;
63664;SDS011;49820;33.966;73.390;2023-01-01T17:44:15;17.13;;;10.68;;
63664;SDS011;49820;33.966;73.390;2023-01-01T17:46:45;18.33;;;11.03;;